sensor_id;sensor_type;location;lat;lon;timestamp;P1;durP1;ratioP1;P2;durP2;ratioP2
47289;SDS011;33197;52.524;13.444;2022-09-19T00:01:33;5.57;;;2.08;;
47289;SDS011;33197;52.524;13.444;2022-09-19T00:04:05;7.20;;;1.70;;
47289;SDS011;33197;52.524;13.444;2022-09-19T00:06:34;6.82;;;1.58;;
47289;SDS011;33197;52.524;13.444;2022-09-19T00:09:04;5.60;;;2.10;;
47289;SDS011;33197;52.524;13.444;2022-09-19T00:11:33;5.45;;;1.95;;
47289;SDS011;33197;52.524;13.444;2022-09-19T00:14:00;4.03;;;1.70;;
47289;SDS011;33197;52.524;13.444;2022-09-19T00:16:28;4.10;;;1.85;;
47289;SDS011;33197;52.524;13.444;2022-09-19T00:18:57;4.43;;;1.80;;
47289;SDS011;33197;52.524;13.444;2022-09-19T00:21:30;10.57;;;2.10;;
47289;SDS011;33197;52.524;13.444;2022-09-19T00:24:02;9.88;;;1.90;;
47289;SDS011;33197;52.524;13.444;2022-09-19T00:29:15;4.55;;;1.52;;
47289;SDS011;33197;52.524;13.444;2022-09-19T00:31:43;10.50;;;1.88;;
47289;SDS011;33197;52.524;13.444;2022-09-19T00:34:12;3.72;;;1.30;;
47289;SDS011;33197;52.524;13.444;2022-09-19T00:36:41;10.38;;;2.47;;
47289;SDS011;33197;52.524;13.444;2022-09-19T00:39:09;8.43;;;2.20;;
47289;SDS011;33197;52.524;13.444;2022-09-19T00:41:40;6.53;;;1.90;;
47289;SDS011;33197;52.524;13.444;2022-09-19T00:46:55;7.75;;;2.30;;
47289;SDS011;33197;52.524;13.444;2022-09-19T00:49:23;6.32;;;2.00;;
47289;SDS011;33197;52.524;13.444;2022-09-19T00:51:56;6.78;;;2.03;;
47289;SDS011;33197;52.524;13.444;2022-09-19T00:54:28;10.43;;;2.25;;
47289;SDS011;33197;52.524;13.444;2022-09-19T00:57:16;6.50;;;2.58;;
47289;SDS011;33197;52.524;13.444;2022-09-19T00:59:47;7.25;;;2.53;;
47289;SDS011;33197;52.524;13.444;2022-09-19T01:02:15;5.05;;;2.42;;
47289;SDS011;33197;52.524;13.444;2022-09-19T01:04:46;6.68;;;2.47;;
47289;SDS011;33197;52.524;13.444;2022-09-19T01:18:00;8.05;;;2.05;;
47289;SDS011;33197;52.524;13.444;2022-09-19T01:20:42;9.75;;;3.65;;
47289;SDS011;33197;52.524;13.444;2022-09-19T01:26:32;6.63;;;2.72;;
47289;SDS011;33197;52.524;13.444;2022-09-19T01:29:23;6.10;;;2.60;;
47289;SDS011;33197;52.524;13.444;2022-09-19T01:31:55;9.70;;;3.45;;
47289;SDS011;33197;52.524;13.444;2022-09-19T01:34:28;6.72;;;3.50;;
47289;SDS011;33197;52.524;13.444;2022-09-19T01:39:31;8.02;;;3.13;;
47289;SDS011;33197;52.524;13.444;2022-09-19T01:42:00;10.32;;;3.63;;
47289;SDS011;33197;52.524;13.444;2022-09-19T01:44:28;10.43;;;3.95;;
47289;SDS011;33197;52.524;13.444;2022-09-19T01:49:54;9.02;;;3.70;;
47289;SDS011;33197;52.524;13.444;2022-09-19T01:58:05;9.30;;;3.17;;
47289;SDS011;33197;52.524;13.444;2022-09-19T02:00:33;7.07;;;3.10;;
47289;SDS011;33197;52.524;13.444;2022-09-19T02:03:11;6.88;;;4.00;;
47289;SDS011;33197;52.524;13.444;2022-09-19T02:05:52;11.10;;;4.60;;
47289;SDS011;33197;52.524;13.444;2022-09-19T02:08:29;12.25;;;4.72;;
47289;SDS011;33197;52.524;13.444;2022-09-19T02:11:03;6.93;;;4.95;;
47289;SDS011;33197;52.524;13.444;2022-09-19T02:13:34;15.50;;;6.97;;
47289;SDS011;33197;52.524;13.444;2022-09-19T02:16:06;15.10;;;7.95;;
47289;SDS011;33197;52.524;13.444;2022-09-19T02:18:46;11.50;;;6.28;;
47289;SDS011;33197;52.524;13.444;2022-09-19T02:21:18;14.40;;;7.00;;
47289;SDS011;33197;52.524;13.444;2022-09-19T02:23:49;10.38;;;5.65;;
47289;SDS011;33197;52.524;13.444;2022-09-19T02:26:19;12.60;;;5.70;;
47289;SDS011;33197;52.524;13.444;2022-09-19T02:28:49;13.75;;;5.80;;
47289;SDS011;33197;52.524;13.444;2022-09-19T02:31:21;8.95;;;5.88;;
47289;SDS011;33197;52.524;13.444;2022-09-19T02:33:58;7.55;;;5.35;;
47289;SDS011;33197;52.524;13.444;2022-09-19T02:36:31;15.55;;;4.72;;
47289;SDS011;33197;52.524;13.444;2022-09-19T02:39:12;8.65;;;5.57;;
47289;SDS011;33197;52.524;13.444;2022-09-19T02:42:04;9.82;;;4.82;;
47289;SDS011;33197;52.524;13.444;2022-09-19T02:44:46;8.93;;;5.15;;
47289;SDS011;33197;52.524;13.444;2022-09-19T02:50:54;13.55;;;6.43;;
47289;SDS011;33197;52.524;13.444;2022-09-19T02:53:23;7.00;;;5.05;;
47289;SDS011;33197;52.524;13.444;2022-09-19T02:56:00;8.70;;;5.20;;
47289;SDS011;33197;52.524;13.444;2022-09-19T02:58:30;8.95;;;5.93;;
47289;SDS011;33197;52.524;13.444;2022-09-19T03:01:05;7.17;;;5.87;;
47289;SDS011;33197;52.524;13.444;2022-09-19T03:03:47;10.23;;;5.93;;
47289;SDS011;33197;52.524;13.444;2022-09-19T03:06:37;11.35;;;5.82;;
47289;SDS011;33197;52.524;13.444;2022-09-19T03:09:09;9.57;;;5.22;;
47289;SDS011;33197;52.524;13.444;2022-09-19T03:11:39;9.80;;;4.80;;
47289;SDS011;33197;52.524;13.444;2022-09-19T03:14:08;8.00;;;3.92;;
47289;SDS011;33197;52.524;13.444;2022-09-19T03:16:38;8.85;;;4.68;;
47289;SDS011;33197;52.524;13.444;2022-09-19T03:19:08;11.32;;;4.50;;
47289;SDS011;33197;52.524;13.444;2022-09-19T03:21:36;7.85;;;4.70;;
47289;SDS011;33197;52.524;13.444;2022-09-19T03:24:05;6.05;;;4.13;;
47289;SDS011;33197;52.524;13.444;2022-09-19T03:26:33;6.95;;;4.63;;
47289;SDS011;33197;52.524;13.444;2022-09-19T03:29:03;8.63;;;5.47;;
47289;SDS011;33197;52.524;13.444;2022-09-19T03:31:32;15.60;;;5.68;;
47289;SDS011;33197;52.524;13.444;2022-09-19T03:33:59;7.45;;;5.28;;
47289;SDS011;33197;52.524;13.444;2022-09-19T03:36:26;11.07;;;4.93;;
47289;SDS011;33197;52.524;13.444;2022-09-19T03:38:56;8.82;;;5.53;;
47289;SDS011;33197;52.524;13.444;2022-09-19T03:41:28;7.25;;;5.25;;
47289;SDS011;33197;52.524;13.444;2022-09-19T03:44:00;10.23;;;5.55;;
47289;SDS011;33197;52.524;13.444;2022-09-19T03:46:29;11.32;;;6.43;;
47289;SDS011;33197;52.524;13.444;2022-09-19T03:48:59;8.23;;;5.00;;
47289;SDS011;33197;52.524;13.444;2022-09-19T03:51:28;11.43;;;5.28;;
47289;SDS011;33197;52.524;13.444;2022-09-19T03:53:57;9.70;;;5.68;;
47289;SDS011;33197;52.524;13.444;2022-09-19T03:56:24;11.30;;;5.63;;
47289;SDS011;33197;52.524;13.444;2022-09-19T03:58:52;8.00;;;5.28;;
47289;SDS011;33197;52.524;13.444;2022-09-19T04:01:19;9.57;;;4.53;;
47289;SDS011;33197;52.524;13.444;2022-09-19T04:03:48;8.48;;;4.97;;
47289;SDS011;33197;52.524;13.444;2022-09-19T04:06:16;11.45;;;5.30;;
47289;SDS011;33197;52.524;13.444;2022-09-19T04:08:43;9.88;;;5.38;;
47289;SDS011;33197;52.524;13.444;2022-09-19T04:11:10;9.70;;;5.78;;
47289;SDS011;33197;52.524;13.444;2022-09-19T04:13:39;9.93;;;5.28;;
47289;SDS011;33197;52.524;13.444;2022-09-19T04:16:06;9.48;;;5.97;;
47289;SDS011;33197;52.524;13.444;2022-09-19T04:18:34;8.45;;;4.55;;
47289;SDS011;33197;52.524;13.444;2022-09-19T04:21:01;8.45;;;5.28;;
47289;SDS011;33197;52.524;13.444;2022-09-19T04:23:30;9.80;;;5.13;;
47289;SDS011;33197;52.524;13.444;2022-09-19T04:25:57;8.10;;;4.60;;
47289;SDS011;33197;52.524;13.444;2022-09-19T04:28:24;9.15;;;4.47;;
47289;SDS011;33197;52.524;13.444;2022-09-19T04:30:51;9.32;;;5.20;;
47289;SDS011;33197;52.524;13.444;2022-09-19T04:33:18;6.13;;;4.32;;
47289;SDS011;33197;52.524;13.444;2022-09-19T04:35:48;11.93;;;5.25;;
47289;SDS011;33197;52.524;13.444;2022-09-19T04:38:16;16.10;;;5.47;;
47289;SDS011;33197;52.524;13.444;2022-09-19T04:40:45;9.38;;;4.90;;
47289;SDS011;33197;52.524;13.444;2022-09-19T04:43:16;12.70;;;5.65;;
47289;SDS011;33197;52.524;13.444;2022-09-19T04:45:45;7.47;;;5.00;;
47289;SDS011;33197;52.524;13.444;2022-09-19T04:48:15;8.70;;;5.47;;
47289;SDS011;33197;52.524;13.444;2022-09-19T04:50:43;10.25;;;5.53;;
47289;SDS011;33197;52.524;13.444;2022-09-19T04:53:11;11.93;;;6.07;;
47289;SDS011;33197;52.524;13.444;2022-09-19T04:55:43;6.25;;;5.35;;
47289;SDS011;33197;52.524;13.444;2022-09-19T04:58:14;9.63;;;5.10;;
47289;SDS011;33197;52.524;13.444;2022-09-19T05:00:49;10.15;;;5.15;;
47289;SDS011;33197;52.524;13.444;2022-09-19T05:03:20;8.60;;;5.47;;
47289;SDS011;33197;52.524;13.444;2022-09-19T05:05:52;10.60;;;5.70;;
47289;SDS011;33197;52.524;13.444;2022-09-19T05:08:24;8.40;;;5.50;;
47289;SDS011;33197;52.524;13.444;2022-09-19T05:10:57;8.98;;;5.35;;
47289;SDS011;33197;52.524;13.444;2022-09-19T05:13:26;11.88;;;5.60;;
47289;SDS011;33197;52.524;13.444;2022-09-19T05:15:55;8.23;;;5.47;;
47289;SDS011;33197;52.524;13.444;2022-09-19T05:18:22;12.73;;;6.18;;
47289;SDS011;33197;52.524;13.444;2022-09-19T05:20:50;9.55;;;5.70;;
47289;SDS011;33197;52.524;13.444;2022-09-19T05:23:20;9.32;;;5.43;;
47289;SDS011;33197;52.524;13.444;2022-09-19T05:25:50;6.47;;;5.15;;
47289;SDS011;33197;52.524;13.444;2022-09-19T05:28:21;7.25;;;4.75;;
47289;SDS011;33197;52.524;13.444;2022-09-19T05:30:50;9.43;;;5.32;;
47289;SDS011;33197;52.524;13.444;2022-09-19T05:33:21;11.02;;;5.43;;
47289;SDS011;33197;52.524;13.444;2022-09-19T05:35:55;8.63;;;5.18;;
47289;SDS011;33197;52.524;13.444;2022-09-19T05:38:28;8.93;;;5.20;;
47289;SDS011;33197;52.524;13.444;2022-09-19T05:40:57;13.20;;;5.85;;
47289;SDS011;33197;52.524;13.444;2022-09-19T05:43:25;11.02;;;5.85;;
47289;SDS011;33197;52.524;13.444;2022-09-19T05:45:53;14.20;;;7.47;;
47289;SDS011;33197;52.524;13.444;2022-09-19T05:48:21;11.85;;;7.10;;
47289;SDS011;33197;52.524;13.444;2022-09-19T05:50:50;12.63;;;6.57;;
47289;SDS011;33197;52.524;13.444;2022-09-19T05:53:18;10.48;;;6.20;;
47289;SDS011;33197;52.524;13.444;2022-09-19T05:56:05;18.70;;;7.88;;
47289;SDS011;33197;52.524;13.444;2022-09-19T05:58:36;34.75;;;8.52;;
47289;SDS011;33197;52.524;13.444;2022-09-19T06:01:04;11.13;;;5.53;;
47289;SDS011;33197;52.524;13.444;2022-09-19T06:03:33;13.85;;;5.50;;
47289;SDS011;33197;52.524;13.444;2022-09-19T06:06:01;8.90;;;5.22;;
47289;SDS011;33197;52.524;13.444;2022-09-19T06:08:28;9.63;;;5.28;;
47289;SDS011;33197;52.524;13.444;2022-09-19T06:10:59;12.32;;;5.25;;
47289;SDS011;33197;52.524;13.444;2022-09-19T06:13:26;8.77;;;5.13;;
47289;SDS011;33197;52.524;13.444;2022-09-19T06:16:13;12.80;;;4.72;;
47289;SDS011;33197;52.524;13.444;2022-09-19T06:18:40;8.23;;;4.07;;
47289;SDS011;33197;52.524;13.444;2022-09-19T06:21:12;9.38;;;5.35;;
47289;SDS011;33197;52.524;13.444;2022-09-19T06:23:40;9.13;;;3.88;;
47289;SDS011;33197;52.524;13.444;2022-09-19T06:26:08;7.57;;;3.53;;
47289;SDS011;33197;52.524;13.444;2022-09-19T06:28:35;6.75;;;3.80;;
47289;SDS011;33197;52.524;13.444;2022-09-19T06:31:03;14.60;;;4.40;;
47289;SDS011;33197;52.524;13.444;2022-09-19T06:33:30;9.85;;;4.22;;
47289;SDS011;33197;52.524;13.444;2022-09-19T06:35:58;8.13;;;4.70;;
47289;SDS011;33197;52.524;13.444;2022-09-19T06:38:26;13.88;;;4.57;;
47289;SDS011;33197;52.524;13.444;2022-09-19T06:40:54;6.57;;;3.10;;
47289;SDS011;33197;52.524;13.444;2022-09-19T06:43:21;9.07;;;3.70;;
47289;SDS011;33197;52.524;13.444;2022-09-19T06:45:48;9.52;;;3.58;;
47289;SDS011;33197;52.524;13.444;2022-09-19T06:48:16;10.18;;;3.53;;
47289;SDS011;33197;52.524;13.444;2022-09-19T06:50:44;7.05;;;3.45;;
47289;SDS011;33197;52.524;13.444;2022-09-19T06:53:13;5.38;;;3.30;;
47289;SDS011;33197;52.524;13.444;2022-09-19T06:55:41;8.98;;;3.00;;
47289;SDS011;33197;52.524;13.444;2022-09-19T06:58:13;5.10;;;3.17;;
47289;SDS011;33197;52.524;13.444;2022-09-19T07:00:40;9.05;;;3.13;;
47289;SDS011;33197;52.524;13.444;2022-09-19T07:03:12;8.35;;;3.22;;
47289;SDS011;33197;52.524;13.444;2022-09-19T07:05:42;7.32;;;3.00;;
47289;SDS011;33197;52.524;13.444;2022-09-19T07:08:10;10.88;;;3.30;;
47289;SDS011;33197;52.524;13.444;2022-09-19T07:10:38;4.30;;;2.58;;
47289;SDS011;33197;52.524;13.444;2022-09-19T07:13:07;7.95;;;3.10;;
47289;SDS011;33197;52.524;13.444;2022-09-19T07:15:36;6.97;;;2.78;;
47289;SDS011;33197;52.524;13.444;2022-09-19T07:18:04;10.65;;;3.13;;
47289;SDS011;33197;52.524;13.444;2022-09-19T07:20:40;6.30;;;2.80;;
47289;SDS011;33197;52.524;13.444;2022-09-19T07:23:10;10.48;;;3.25;;
47289;SDS011;33197;52.524;13.444;2022-09-19T07:25:40;6.68;;;2.78;;
47289;SDS011;33197;52.524;13.444;2022-09-19T07:28:15;5.68;;;2.53;;
47289;SDS011;33197;52.524;13.444;2022-09-19T07:30:43;6.35;;;2.67;;
47289;SDS011;33197;52.524;13.444;2022-09-19T07:33:18;3.70;;;2.05;;
47289;SDS011;33197;52.524;13.444;2022-09-19T07:35:50;4.90;;;2.00;;
47289;SDS011;33197;52.524;13.444;2022-09-19T07:38:21;7.18;;;2.28;;
47289;SDS011;33197;52.524;13.444;2022-09-19T07:40:49;7.72;;;1.83;;
47289;SDS011;33197;52.524;13.444;2022-09-19T07:43:17;6.40;;;1.95;;
47289;SDS011;33197;52.524;13.444;2022-09-19T07:45:45;3.53;;;1.45;;
47289;SDS011;33197;52.524;13.444;2022-09-19T07:48:13;6.88;;;1.75;;
47289;SDS011;33197;52.524;13.444;2022-09-19T07:50:41;4.25;;;2.13;;
47289;SDS011;33197;52.524;13.444;2022-09-19T07:53:17;5.97;;;1.63;;
47289;SDS011;33197;52.524;13.444;2022-09-19T07:55:49;7.07;;;1.80;;
47289;SDS011;33197;52.524;13.444;2022-09-19T07:58:19;7.00;;;2.15;;
47289;SDS011;33197;52.524;13.444;2022-09-19T08:00:47;5.53;;;1.65;;
47289;SDS011;33197;52.524;13.444;2022-09-19T08:03:15;5.70;;;1.60;;
47289;SDS011;33197;52.524;13.444;2022-09-19T08:05:45;5.35;;;2.10;;
47289;SDS011;33197;52.524;13.444;2022-09-19T08:08:13;4.00;;;1.50;;
47289;SDS011;33197;52.524;13.444;2022-09-19T08:10:41;6.20;;;1.80;;
47289;SDS011;33197;52.524;13.444;2022-09-19T08:13:14;3.50;;;1.50;;
47289;SDS011;33197;52.524;13.444;2022-09-19T08:15:43;3.38;;;1.63;;
47289;SDS011;33197;52.524;13.444;2022-09-19T08:18:15;4.88;;;1.42;;
47289;SDS011;33197;52.524;13.444;2022-09-19T08:20:44;9.00;;;1.80;;
47289;SDS011;33197;52.524;13.444;2022-09-19T08:23:12;3.83;;;2.25;;
47289;SDS011;33197;52.524;13.444;2022-09-19T08:25:41;4.85;;;1.60;;
47289;SDS011;33197;52.524;13.444;2022-09-19T08:28:13;5.35;;;1.50;;
47289;SDS011;33197;52.524;13.444;2022-09-19T08:30:41;3.28;;;1.10;;
47289;SDS011;33197;52.524;13.444;2022-09-19T08:33:10;4.03;;;1.25;;
47289;SDS011;33197;52.524;13.444;2022-09-19T08:35:39;2.85;;;1.02;;
47289;SDS011;33197;52.524;13.444;2022-09-19T08:38:09;4.05;;;1.10;;
47289;SDS011;33197;52.524;13.444;2022-09-19T08:45:41;3.92;;;1.10;;
47289;SDS011;33197;52.524;13.444;2022-09-19T08:48:51;3.45;;;1.08;;
47289;SDS011;33197;52.524;13.444;2022-09-19T08:51:43;2.58;;;1.20;;
47289;SDS011;33197;52.524;13.444;2022-09-19T08:54:24;3.10;;;1.10;;
47289;SDS011;33197;52.524;13.444;2022-09-19T08:57:03;4.28;;;1.38;;
47289;SDS011;33197;52.524;13.444;2022-09-19T08:59:32;5.40;;;1.17;;
47289;SDS011;33197;52.524;13.444;2022-09-19T09:02:23;9.65;;;1.65;;
47289;SDS011;33197;52.524;13.444;2022-09-19T09:05:17;3.47;;;1.73;;
47289;SDS011;33197;52.524;13.444;2022-09-19T09:08:05;5.55;;;0.88;;
47289;SDS011;33197;52.524;13.444;2022-09-19T09:10:49;5.18;;;0.98;;
47289;SDS011;33197;52.524;13.444;2022-09-19T09:13:24;5.60;;;1.10;;
47289;SDS011;33197;52.524;13.444;2022-09-19T09:21:55;5.43;;;1.20;;
47289;SDS011;33197;52.524;13.444;2022-09-19T09:24:33;3.60;;;1.17;;
47289;SDS011;33197;52.524;13.444;2022-09-19T09:27:04;3.88;;;1.08;;
47289;SDS011;33197;52.524;13.444;2022-09-19T09:29:37;1.77;;;0.70;;
47289;SDS011;33197;52.524;13.444;2022-09-19T09:34:46;6.38;;;0.82;;
47289;SDS011;33197;52.524;13.444;2022-09-19T09:37:22;3.65;;;0.88;;
47289;SDS011;33197;52.524;13.444;2022-09-19T09:40:03;2.22;;;1.08;;
47289;SDS011;33197;52.524;13.444;2022-09-19T09:42:38;3.10;;;0.60;;
47289;SDS011;33197;52.524;13.444;2022-09-19T09:50:44;2.03;;;0.68;;
47289;SDS011;33197;52.524;13.444;2022-09-19T10:05:15;1.92;;;0.95;;
47289;SDS011;33197;52.524;13.444;2022-09-19T10:08:14;5.30;;;1.10;;
47289;SDS011;33197;52.524;13.444;2022-09-19T10:10:59;5.50;;;1.00;;
47289;SDS011;33197;52.524;13.444;2022-09-19T10:13:52;4.00;;;0.80;;
47289;SDS011;33197;52.524;13.444;2022-09-19T10:16:26;1.85;;;0.60;;
47289;SDS011;33197;52.524;13.444;2022-09-19T10:18:57;0.63;;;0.50;;
47289;SDS011;33197;52.524;13.444;2022-09-19T10:21:31;2.58;;;0.50;;
47289;SDS011;33197;52.524;13.444;2022-09-19T10:23:58;2.45;;;0.65;;
47289;SDS011;33197;52.524;13.444;2022-09-19T10:26:26;1.92;;;0.68;;
47289;SDS011;33197;52.524;13.444;2022-09-19T10:28:55;8.65;;;1.30;;
47289;SDS011;33197;52.524;13.444;2022-09-19T10:31:30;2.72;;;0.50;;
47289;SDS011;33197;52.524;13.444;2022-09-19T10:34:02;3.17;;;0.90;;
47289;SDS011;33197;52.524;13.444;2022-09-19T10:36:43;2.97;;;0.75;;
47289;SDS011;33197;52.524;13.444;2022-09-19T10:39:14;1.40;;;0.60;;
47289;SDS011;33197;52.524;13.444;2022-09-19T10:41:43;2.60;;;0.65;;
47289;SDS011;33197;52.524;13.444;2022-09-19T10:44:21;2.15;;;0.77;;
47289;SDS011;33197;52.524;13.444;2022-09-19T10:46:51;1.58;;;0.68;;
47289;SDS011;33197;52.524;13.444;2022-09-19T10:49:22;1.10;;;0.57;;
47289;SDS011;33197;52.524;13.444;2022-09-19T10:51:53;1.48;;;0.65;;
47289;SDS011;33197;52.524;13.444;2022-09-19T10:54:27;1.80;;;0.70;;
47289;SDS011;33197;52.524;13.444;2022-09-19T10:56:58;1.60;;;0.70;;
47289;SDS011;33197;52.524;13.444;2022-09-19T10:59:29;5.18;;;0.70;;
47289;SDS011;33197;52.524;13.444;2022-09-19T11:04:37;1.05;;;0.40;;
47289;SDS011;33197;52.524;13.444;2022-09-19T11:07:14;1.45;;;0.60;;
47289;SDS011;33197;52.524;13.444;2022-09-19T11:09:43;1.75;;;0.70;;
47289;SDS011;33197;52.524;13.444;2022-09-19T11:12:12;1.30;;;0.50;;
47289;SDS011;33197;52.524;13.444;2022-09-19T11:14:42;0.85;;;0.52;;
47289;SDS011;33197;52.524;13.444;2022-09-19T11:26:01;2.30;;;0.73;;
47289;SDS011;33197;52.524;13.444;2022-09-19T11:28:43;2.08;;;0.90;;
47289;SDS011;33197;52.524;13.444;2022-09-19T11:34:35;2.50;;;0.80;;
47289;SDS011;33197;52.524;13.444;2022-09-19T11:37:38;1.45;;;0.73;;
47289;SDS011;33197;52.524;13.444;2022-09-19T11:42:43;5.60;;;1.42;;
47289;SDS011;33197;52.524;13.444;2022-09-19T11:45:19;4.35;;;1.13;;
47289;SDS011;33197;52.524;13.444;2022-09-19T11:47:57;2.78;;;1.05;;
47289;SDS011;33197;52.524;13.444;2022-09-19T11:50:48;3.15;;;0.93;;
47289;SDS011;33197;52.524;13.444;2022-09-19T11:53:26;2.80;;;1.13;;
47289;SDS011;33197;52.524;13.444;2022-09-19T11:58:47;4.30;;;1.42;;
47289;SDS011;33197;52.524;13.444;2022-09-19T12:09:30;2.17;;;1.00;;
47289;SDS011;33197;52.524;13.444;2022-09-19T12:14:39;8.30;;;0.95;;
47289;SDS011;33197;52.524;13.444;2022-09-19T12:17:10;3.47;;;0.70;;
47289;SDS011;33197;52.524;13.444;2022-09-19T12:19:48;5.18;;;0.75;;
47289;SDS011;33197;52.524;13.444;2022-09-19T12:22:25;3.05;;;0.90;;
47289;SDS011;33197;52.524;13.444;2022-09-19T12:33:03;2.45;;;0.50;;
47289;SDS011;33197;52.524;13.444;2022-09-19T12:38:16;1.38;;;0.65;;
47289;SDS011;33197;52.524;13.444;2022-09-19T12:41:17;1.40;;;0.80;;
47289;SDS011;33197;52.524;13.444;2022-09-19T12:47:00;2.45;;;0.68;;
47289;SDS011;33197;52.524;13.444;2022-09-19T12:49:36;3.83;;;0.82;;
47289;SDS011;33197;52.524;13.444;2022-09-19T12:52:26;3.58;;;0.70;;
47289;SDS011;33197;52.524;13.444;2022-09-19T12:55:00;3.00;;;0.77;;
47289;SDS011;33197;52.524;13.444;2022-09-19T12:57:32;1.67;;;0.75;;
47289;SDS011;33197;52.524;13.444;2022-09-19T13:00:03;1.20;;;0.43;;
47289;SDS011;33197;52.524;13.444;2022-09-19T13:02:32;1.92;;;0.73;;
47289;SDS011;33197;52.524;13.444;2022-09-19T13:05:06;3.85;;;0.80;;
47289;SDS011;33197;52.524;13.444;2022-09-19T13:07:53;3.78;;;1.10;;
47289;SDS011;33197;52.524;13.444;2022-09-19T13:10:40;3.65;;;1.08;;
47289;SDS011;33197;52.524;13.444;2022-09-19T13:13:13;2.30;;;1.00;;
47289;SDS011;33197;52.524;13.444;2022-09-19T13:15:46;4.38;;;1.10;;
47289;SDS011;33197;52.524;13.444;2022-09-19T13:18:16;1.38;;;0.80;;
47289;SDS011;33197;52.524;13.444;2022-09-19T13:21:03;4.18;;;1.17;;
47289;SDS011;33197;52.524;13.444;2022-09-19T13:23:55;1.83;;;0.70;;
47289;SDS011;33197;52.524;13.444;2022-09-19T13:26:25;2.22;;;1.10;;
47289;SDS011;33197;52.524;13.444;2022-09-19T13:29:03;1.52;;;1.05;;
47289;SDS011;33197;52.524;13.444;2022-09-19T13:34:33;1.70;;;1.27;;
47289;SDS011;33197;52.524;13.444;2022-09-19T13:40:02;3.17;;;1.50;;
47289;SDS011;33197;52.524;13.444;2022-09-19T13:42:57;5.50;;;1.75;;
47289;SDS011;33197;52.524;13.444;2022-09-19T13:51:29;4.03;;;1.40;;
47289;SDS011;33197;52.524;13.444;2022-09-19T13:56:49;6.05;;;1.30;;
47289;SDS011;33197;52.524;13.444;2022-09-19T13:59:31;2.22;;;1.35;;
47289;SDS011;33197;52.524;13.444;2022-09-19T14:05:01;6.25;;;1.60;;
47289;SDS011;33197;52.524;13.444;2022-09-19T14:08:20;3.47;;;1.60;;
47289;SDS011;33197;52.524;13.444;2022-09-19T14:10:48;6.43;;;1.73;;
47289;SDS011;33197;52.524;13.444;2022-09-19T14:18:45;3.72;;;1.80;;
47289;SDS011;33197;52.524;13.444;2022-09-19T14:23:53;3.80;;;1.55;;
47289;SDS011;33197;52.524;13.444;2022-09-19T14:29:36;2.28;;;1.27;;
47289;SDS011;33197;52.524;13.444;2022-09-19T14:32:20;6.18;;;1.80;;
47289;SDS011;33197;52.524;13.444;2022-09-19T14:43:00;9.05;;;2.33;;
47289;SDS011;33197;52.524;13.444;2022-09-19T14:48:37;9.45;;;1.88;;
47289;SDS011;33197;52.524;13.444;2022-09-19T14:51:23;4.88;;;2.42;;
47289;SDS011;33197;52.524;13.444;2022-09-19T14:56:59;6.95;;;1.92;;
47289;SDS011;33197;52.524;13.444;2022-09-19T14:59:40;3.90;;;1.20;;
47289;SDS011;33197;52.524;13.444;2022-09-19T15:05:14;4.82;;;1.20;;
47289;SDS011;33197;52.524;13.444;2022-09-19T15:07:43;7.97;;;1.20;;
47289;SDS011;33197;52.524;13.444;2022-09-19T15:12:55;1.90;;;0.90;;
47289;SDS011;33197;52.524;13.444;2022-09-19T15:15:22;2.75;;;0.85;;
47289;SDS011;33197;52.524;13.444;2022-09-19T15:17:51;2.67;;;1.05;;
47289;SDS011;33197;52.524;13.444;2022-09-19T15:20:19;2.28;;;0.80;;
47289;SDS011;33197;52.524;13.444;2022-09-19T15:25:22;5.82;;;1.20;;
47289;SDS011;33197;52.524;13.444;2022-09-19T15:27:53;2.38;;;1.15;;
47289;SDS011;33197;52.524;13.444;2022-09-19T15:30:33;3.20;;;0.90;;
47289;SDS011;33197;52.524;13.444;2022-09-19T15:33:01;1.85;;;0.80;;
47289;SDS011;33197;52.524;13.444;2022-09-19T15:35:30;4.65;;;1.20;;
47289;SDS011;33197;52.524;13.444;2022-09-19T15:38:05;6.22;;;1.17;;
47289;SDS011;33197;52.524;13.444;2022-09-19T15:40:35;2.28;;;1.02;;
47289;SDS011;33197;52.524;13.444;2022-09-19T15:43:04;5.18;;;0.90;;
47289;SDS011;33197;52.524;13.444;2022-09-19T15:45:43;1.98;;;1.23;;
47289;SDS011;33197;52.524;13.444;2022-09-19T15:50:45;2.13;;;1.05;;
47289;SDS011;33197;52.524;13.444;2022-09-19T15:53:15;1.98;;;0.90;;
47289;SDS011;33197;52.524;13.444;2022-09-19T15:55:55;2.60;;;1.10;;
47289;SDS011;33197;52.524;13.444;2022-09-19T15:58:26;5.88;;;1.23;;
47289;SDS011;33197;52.524;13.444;2022-09-19T16:14:47;3.42;;;1.27;;
47289;SDS011;33197;52.524;13.444;2022-09-19T16:17:20;5.50;;;1.40;;
47289;SDS011;33197;52.524;13.444;2022-09-19T16:19:49;2.90;;;1.35;;
47289;SDS011;33197;52.524;13.444;2022-09-19T16:22:20;5.55;;;1.60;;
47289;SDS011;33197;52.524;13.444;2022-09-19T16:24:49;3.97;;;1.30;;
47289;SDS011;33197;52.524;13.444;2022-09-19T16:27:22;3.92;;;1.10;;
47289;SDS011;33197;52.524;13.444;2022-09-19T16:29:55;4.78;;;1.30;;
47289;SDS011;33197;52.524;13.444;2022-09-19T16:32:25;3.00;;;1.23;;
47289;SDS011;33197;52.524;13.444;2022-09-19T16:34:54;3.17;;;1.17;;
47289;SDS011;33197;52.524;13.444;2022-09-19T16:37:26;2.55;;;1.10;;
47289;SDS011;33197;52.524;13.444;2022-09-19T16:40:00;3.58;;;0.90;;
47289;SDS011;33197;52.524;13.444;2022-09-19T16:42:28;1.73;;;0.90;;
47289;SDS011;33197;52.524;13.444;2022-09-19T16:45:17;2.88;;;1.52;;
47289;SDS011;33197;52.524;13.444;2022-09-19T16:47:46;4.65;;;1.13;;
47289;SDS011;33197;52.524;13.444;2022-09-19T16:50:15;5.13;;;1.70;;
47289;SDS011;33197;52.524;13.444;2022-09-19T16:52:46;2.70;;;1.33;;
47289;SDS011;33197;52.524;13.444;2022-09-19T16:55:25;2.92;;;1.23;;
47289;SDS011;33197;52.524;13.444;2022-09-19T16:58:06;2.92;;;1.20;;
47289;SDS011;33197;52.524;13.444;2022-09-19T17:00:37;6.45;;;2.05;;
47289;SDS011;33197;52.524;13.444;2022-09-19T17:03:05;2.75;;;0.90;;
47289;SDS011;33197;52.524;13.444;2022-09-19T17:05:34;3.65;;;0.90;;
47289;SDS011;33197;52.524;13.444;2022-09-19T17:08:02;4.30;;;1.10;;
47289;SDS011;33197;52.524;13.444;2022-09-19T17:10:33;4.07;;;1.10;;
47289;SDS011;33197;52.524;13.444;2022-09-19T17:13:00;2.95;;;1.20;;
47289;SDS011;33197;52.524;13.444;2022-09-19T17:18:14;3.22;;;1.20;;
47289;SDS011;33197;52.524;13.444;2022-09-19T17:20:41;2.88;;;1.10;;
47289;SDS011;33197;52.524;13.444;2022-09-19T17:23:15;3.40;;;1.30;;
47289;SDS011;33197;52.524;13.444;2022-09-19T17:25:44;5.43;;;1.30;;
47289;SDS011;33197;52.524;13.444;2022-09-19T17:28:16;4.10;;;1.20;;
47289;SDS011;33197;52.524;13.444;2022-09-19T17:30:44;3.03;;;1.20;;
47289;SDS011;33197;52.524;13.444;2022-09-19T17:33:12;3.58;;;0.90;;
47289;SDS011;33197;52.524;13.444;2022-09-19T17:35:40;5.90;;;1.30;;
47289;SDS011;33197;52.524;13.444;2022-09-19T17:38:07;5.32;;;1.23;;
47289;SDS011;33197;52.524;13.444;2022-09-19T17:40:35;1.70;;;0.80;;
47289;SDS011;33197;52.524;13.444;2022-09-19T17:43:05;3.15;;;1.20;;
47289;SDS011;33197;52.524;13.444;2022-09-19T17:45:33;4.20;;;1.20;;
47289;SDS011;33197;52.524;13.444;2022-09-19T17:48:00;5.60;;;1.80;;
47289;SDS011;33197;52.524;13.444;2022-09-19T17:50:28;1.98;;;1.30;;
47289;SDS011;33197;52.524;13.444;2022-09-19T17:52:56;5.15;;;1.70;;
47289;SDS011;33197;52.524;13.444;2022-09-19T17:55:23;5.97;;;1.63;;
47289;SDS011;33197;52.524;13.444;2022-09-19T17:57:51;4.60;;;1.55;;
47289;SDS011;33197;52.524;13.444;2022-09-19T18:00:19;3.90;;;1.48;;
47289;SDS011;33197;52.524;13.444;2022-09-19T18:02:46;4.22;;;1.40;;
47289;SDS011;33197;52.524;13.444;2022-09-19T18:05:32;2.70;;;1.40;;